Time;durP1;ratioP1;P1;durP2;ratioP2;P2;SDS_P1;SDS_P2;PMS_P1;PMS_P2;Temp;Humidity;BMP_temperature;BMP_pressure;BME280_temperature;BME280_humidity;BME280_pressure;Samples;Min_cycle;Max_cycle;Signal;HPM_P1;HPM_P2
2024/04/11 00:01:05;;;;;;;79.30;67.10;;;;;;;13.34;100.00;101426.42;105623;1260;62404;-78
2024/04/11 00:03:34;;;;;;;45.10;35.30;;;;;;;13.34;100.00;101422.56;105653;1258;71480;-80
2024/04/11 00:06:01;;;;;;;79.30;68.60;;;;;;;13.33;100.00;101421.20;105735;1260;61762;-80
2024/04/11 00:08:29;;;;;;;77.50;68.80;;;;;;;13.33;100.00;101428.20;105729;1258;60927;-77
2024/04/11 00:10:56;;;;;;;75.10;65.30;;;;;;;13.32;100.00;101427.39;105623;1260;73622;-79
2024/04/11 00:13:23;;;;;;;79.30;68.30;;;;;;;13.29;100.00;101427.95;105674;1259;62594;-79
2024/04/11 00:15:53;;;;;;;80.10;70.50;;;;;;;13.26;100.00;101432.10;105636;1260;71789;-79
2024/04/11 00:18:21;;;;;;;76.30;65.60;;;;;;;13.22;100.00;101435.84;105679;1260;61810;-78
2024/04/11 00:20:48;;;;;;;61.30;51.90;;;;;;;13.19;100.00;101440.06;105655;1259;60543;-80
2024/04/11 00:23:16;;;;;;;58.30;44.30;;;;;;;13.14;100.00;101444.72;105567;1258;73725;-79
2024/04/11 00:25:55;;;;;;;45.50;39.00;;;;;;;13.11;100.00;101440.21;105681;1259;62551;-78
2024/04/11 00:28:25;;;;;;;35.40;28.50;;;;;;;13.08;100.00;101443.16;105750;1260;71089;-80
2024/04/11 00:30:53;;;;;;;26.90;23.70;;;;;;;13.05;100.00;101446.50;105611;1260;61878;-79
2024/04/11 00:33:20;;;;;;;30.50;25.10;;;;;;;13.02;100.00;101445.61;105681;1257;60473;-79
2024/04/11 00:35:51;;;;;;;32.00;25.90;;;;;;;13.02;100.00;101447.02;105603;1259;73728;-80
2024/04/11 00:38:20;;;;;;;39.90;32.30;;;;;;;12.99;100.00;101448.95;105632;1256;63733;-80
2024/04/11 00:40:57;;;;;;;44.90;37.40;;;;;;;12.96;100.00;101451.23;105599;1257;72493;-80
2024/04/11 00:43:24;;;;;;;50.00;35.30;;;;;;;12.92;100.00;101447.77;105608;1259;62898;-78
2024/04/11 00:45:51;;;;;;;31.10;26.00;;;;;;;12.90;100.00;101449.09;105664;1259;60372;-77
2024/04/11 00:48:18;;;;;;;29.20;21.90;;;;;;;12.89;100.00;101454.77;105599;1260;73714;-78
2024/04/11 00:50:46;;;;;;;32.40;25.70;;;;;;;12.86;100.00;101452.81;105575;1259;63633;-79
2024/04/11 00:53:13;;;;;;;27.60;23.80;;;;;;;12.85;100.00;101455.00;105634;1260;72708;-78
2024/04/11 00:55:41;;;;;;;26.00;21.60;;;;;;;12.83;100.00;101458.05;105369;1259;62634;-79
2024/04/11 00:58:11;;;;;;;21.50;18.70;;;;;;;12.83;100.00;101458.96;105636;1260;60447;-79
2024/04/11 01:00:38;;;;;;;23.20;18.20;;;;;;;12.81;100.00;101458.75;105542;1255;72609;-80
2024/04/11 01:03:05;;;;;;;26.20;19.20;;;;;;;12.79;100.00;101460.92;105605;1260;63915;-79
2024/04/11 01:05:34;;;;;;;26.10;18.50;;;;;;;12.78;100.00;101463.63;105583;1260;72765;-80
2024/04/11 01:08:07;;;;;;;23.30;19.30;;;;;;;12.76;100.00;101461.83;105762;1257;62251;-79
2024/04/11 01:10:35;;;;;;;18.10;16.20;;;;;;;12.73;100.00;101459.87;105842;1254;60537;-78
2024/04/11 01:13:02;;;;;;;24.30;16.30;;;;;;;12.69;100.00;101461.67;105713;1254;72577;-82
2024/04/11 01:15:29;;;;;;;17.40;13.10;;;;;;;12.64;100.00;101460.89;105744;1258;63867;-79
2024/04/11 01:17:56;;;;;;;19.80;13.10;;;;;;;12.60;100.00;101463.04;105824;1259;70670;-79
2024/04/11 01:20:23;;;;;;;18.90;12.80;;;;;;;12.56;100.00;101458.69;105799;1255;60559;-79
2024/04/11 01:22:50;;;;;;;18.40;12.80;;;;;;;12.54;100.00;101466.17;105819;1257;60357;-79
2024/04/11 01:25:18;;;;;;;19.60;11.70;;;;;;;12.51;100.00;101468.61;105640;1257;73786;-81
2024/04/11 01:27:45;;;;;;;18.10;12.60;;;;;;;12.48;100.00;101466.31;105894;1257;63875;-79
2024/04/11 01:30:12;;;;;;;12.60;10.90;;;;;;;12.45;100.00;101467.69;105656;1257;72512;-80
2024/04/11 01:32:39;;;;;;;17.20;12.40;;;;;;;12.39;100.00;101468.02;105954;1257;62015;-80
2024/04/11 01:35:08;;;;;;;15.10;12.50;;;;;;;12.33;100.00;101468.57;105833;1257;59621;-79
2024/04/11 01:37:35;;;;;;;18.20;12.10;;;;;;;12.28;100.00;101468.27;105895;1256;72102;-77
2024/04/11 01:40:07;;;;;;;17.40;12.50;;;;;;;12.26;100.00;101470.15;106071;1257;63684;-75
2024/04/11 01:42:35;;;;;;;15.30;12.40;;;;;;;12.23;100.00;101466.80;105875;1254;72632;-77
2024/04/11 01:45:02;;;;;;;14.40;12.10;;;;;;;12.21;100.00;101469.73;105761;1254;60453;-80
2024/04/11 01:47:30;;;;;;;17.70;10.80;;;;;;;12.18;100.00;101472.66;105846;1258;60392;-79
2024/04/11 01:49:57;;;;;;;23.50;12.40;;;;;;;12.16;100.00;101473.30;105779;1255;73639;-78
2024/04/11 01:52:24;;;;;;;16.00;12.30;;;;;;;12.14;100.00;101470.62;105852;1257;63734;-79
2024/04/11 01:54:50;;;;;;;16.10;11.90;;;;;;;12.11;100.00;101470.92;106503;1256;72445;-78
2024/04/11 01:57:17;;;;;;;14.60;11.90;;;;;;;12.09;100.00;101472.11;106136;1258;60425;-78
2024/04/11 02:03:43;;;;;;;14.90;12.40;;;;;;;12.01;100.00;101472.31;88044;1268;1004143;-77
2024/04/11 02:06:11;;;;;;;16.00;11.60;;;;;;;11.99;100.00;101471.39;104822;1273;63801;-76
2024/04/11 02:08:39;;;;;;;15.70;11.10;;;;;;;11.96;100.00;101467.86;104620;1273;72694;-78
2024/04/11 02:11:07;;;;;;;15.00;12.30;;;;;;;11.92;100.00;101466.67;104713;1273;61995;-79
2024/04/11 02:13:33;;;;;;;17.70;12.10;;;;;;;11.90;100.00;101462.39;104752;1273;60469;-75
2024/04/11 02:16:00;;;;;;;15.90;11.40;;;;;;;11.89;100.00;101465.95;104784;1268;72712;-75
2024/04/11 02:18:29;;;;;;;15.70;12.10;;;;;;;11.86;100.00;101467.11;104709;1268;64124;-74
2024/04/11 02:20:56;;;;;;;15.00;12.40;;;;;;;11.82;100.00;101469.94;104851;1268;72685;-77
2024/04/11 02:23:24;;;;;;;19.60;13.90;;;;;;;11.78;100.00;101476.43;104745;1272;61855;-76
2024/04/11 02:25:51;;;;;;;45.00;17.20;;;;;;;11.76;100.00;101476.89;104708;1268;60488;-76
2024/04/11 02:28:21;;;;;;;22.10;13.60;;;;;;;11.75;100.00;101478.73;104729;1268;73901;-77
2024/04/11 02:30:47;;;;;;;23.40;13.10;;;;;;;11.73;100.00;101480.04;104731;1273;63854;-77
2024/04/11 02:33:14;;;;;;;17.30;11.30;;;;;;;11.71;100.00;101480.66;104574;1272;72652;-76
2024/04/11 02:35:42;;;;;;;26.10;12.50;;;;;;;11.69;100.00;101483.04;104592;1273;61847;-76
2024/04/11 02:38:10;;;;;;;18.10;12.10;;;;;;;11.68;100.00;101485.58;104541;1268;60495;-78
2024/04/11 02:40:37;;;;;;;16.60;11.60;;;;;;;11.65;100.00;101483.11;104594;1268;73859;-77
2024/04/11 02:43:04;;;;;;;17.30;11.20;;;;;;;11.61;100.00;101486.75;104561;1268;63800;-80
2024/04/11 02:45:31;;;;;;;18.60;11.20;;;;;;;11.60;100.00;101489.30;104571;1268;73178;-77
2024/04/11 02:47:58;;;;;;;17.60;13.10;;;;;;;11.58;100.00;101491.13;104653;1274;61804;-76
2024/04/11 02:50:25;;;;;;;14.20;11.10;;;;;;;11.57;100.00;101490.16;104585;1274;61195;-78
2024/04/11 02:52:52;;;;;;;19.10;11.20;;;;;;;11.54;100.00;101489.75;104591;1273;74507;-77
2024/04/11 02:55:19;;;;;;;19.20;11.60;;;;;;;11.50;100.00;101491.20;104615;1272;64000;-76
2024/04/11 02:57:46;;;;;;;16.50;12.10;;;;;;;11.46;100.00;101490.01;104792;1273;72647;-76
2024/04/11 03:00:16;;;;;;;15.10;11.60;;;;;;;11.41;100.00;101491.11;104806;1269;61288;-76
2024/04/11 03:02:43;;;;;;;16.50;11.60;;;;;;;11.38;100.00;101496.14;104599;1268;61317;-78
2024/04/11 03:05:12;;;;;;;22.90;10.90;;;;;;;11.36;100.00;101497.14;104775;1268;73504;-77
2024/04/11 03:07:44;;;;;;;;;;;;;;;11.32;100.00;101498.00;104612;1273;65449;-78
2024/04/11 03:10:11;;;;;;;14.60;10.30;;;;;;;11.31;100.00;101499.30;104752;1268;72702;-76
2024/04/11 03:12:38;;;;;;;16.50;10.90;;;;;;;11.30;100.00;101500.95;104535;1268;62118;-77
2024/04/11 03:15:08;;;;;;;19.50;12.10;;;;;;;11.30;100.00;101507.23;104705;1269;61364;-77
2024/04/11 03:17:36;;;;;;;15.50;11.10;;;;;;;11.30;100.00;101509.67;104732;1273;74695;-77
2024/04/11 03:20:03;;;;;;;17.90;11.40;;;;;;;11.31;100.00;101510.50;104617;1268;63887;-79
2024/04/11 03:22:30;;;;;;;16.70;11.40;;;;;;;11.33;100.00;101513.23;104602;1274;72720;-78
2024/04/11 03:24:57;;;;;;;22.40;10.60;;;;;;;11.34;100.00;101517.02;104787;1273;62076;-78
2024/04/11 03:27:24;;;;;;;17.90;11.10;;;;;;;11.36;100.00;101516.73;104611;1268;61383;-78
2024/04/11 03:29:51;;;;;;;16.80;11.00;;;;;;;11.38;100.00;101519.28;104695;1268;73119;-78
2024/04/11 03:32:17;;;;;;;14.30;10.50;;;;;;;11.40;100.00;101515.13;104655;1269;62703;-78
2024/04/11 03:34:45;;;;;;;14.20;9.90;;;;;;;11.44;100.00;101514.06;104655;1268;72590;-78
2024/04/11 03:37:12;;;;;;;13.20;9.30;;;;;;;11.48;100.00;101515.80;104843;1273;61850;-77
2024/04/11 03:39:39;;;;;;;16.60;13.20;;;;;;;11.52;100.00;101515.80;105069;1274;61218;-76
2024/04/11 03:42:07;;;;;;;19.90;11.50;;;;;;;11.55;100.00;101520.17;104891;1273;74645;-76
2024/04/11 03:44:35;;;;;;;18.10;11.10;;;;;;;11.59;100.00;101518.92;105081;1272;62703;-78
2024/04/11 03:47:04;;;;;;;14.30;9.60;;;;;;;11.65;100.00;101524.23;104673;1270;71459;-77
2024/04/11 03:49:32;;;;;;;18.20;11.10;;;;;;;11.72;100.00;101525.12;104727;1268;62303;-76
2024/04/11 03:52:00;;;;;;;29.80;10.80;;;;;;;11.78;100.00;101529.56;104631;1273;61265;-76
2024/04/11 03:54:27;;;;;;;17.80;10.80;;;;;;;11.84;100.00;101529.95;104600;1269;73445;-79
2024/04/11 03:56:55;;;;;;;22.60;10.30;;;;;;;11.91;100.00;101532.63;104656;1268;63312;-78
2024/04/11 03:59:21;;;;;;;26.70;11.70;;;;;;;11.97;100.00;101535.82;104594;1268;71463;-79
2024/04/11 04:01:48;;;;;;;17.00;10.90;;;;;;;12.03;100.00;101539.33;104617;1273;61266;-77
2024/04/11 04:04:19;;;;;;;13.60;10.10;;;;;;;12.09;100.00;101541.69;104683;1274;61258;-77
2024/04/11 04:06:47;;;;;;;19.40;10.80;;;;;;;12.15;100.00;101548.04;104671;1273;74472;-79
2024/04/11 04:09:15;;;;;;;30.00;10.90;;;;;;;12.23;100.00;101547.06;104623;1268;62397;-79
2024/04/11 04:11:42;;;;;;;23.70;11.80;;;;;;;12.33;100.00;101548.13;104538;1273;72749;-77
2024/04/11 04:14:12;;;;;;;18.10;11.00;;;;;;;12.45;100.00;101550.67;104697;1273;61940;-78
2024/04/11 04:16:39;;;;;;;14.10;11.00;;;;;;;12.57;100.00;101553.70;104681;1270;61278;-77
2024/04/11 04:19:07;;;;;;;19.10;10.70;;;;;;;12.70;100.00;101556.55;104734;1272;74775;-79
2024/04/11 04:21:35;;;;;;;22.20;11.50;;;;;;;12.85;100.00;101563.63;104780;1272;63884;-77
2024/04/11 04:24:05;;;;;;;20.80;10.60;;;;;;;13.03;100.00;101566.12;104791;1273;72596;-75
2024/04/11 04:26:36;;;;;;;18.80;10.80;;;;;;;13.21;100.00;101568.28;104807;1268;61916;-77
2024/04/11 04:29:03;;;;;;;20.60;13.10;;;;;;;13.38;100.00;101569.34;104819;1271;61278;-78
2024/04/11 04:31:32;;;;;;;19.30;12.50;;;;;;;13.52;100.00;101573.80;104649;1272;74517;-77
2024/04/11 04:34:00;;;;;;;20.60;11.80;;;;;;;13.63;100.00;101573.17;104536;1273;62636;-78
2024/04/11 04:36:39;;;;;;;24.30;13.40;;;;;;;13.76;100.00;101574.35;104702;1268;72680;-78
2024/04/11 04:39:06;;;;;;;25.60;14.00;;;;;;;13.92;100.00;101574.64;104797;1268;62026;-77
2024/04/11 04:41:34;;;;;;;35.60;14.60;;;;;;;14.06;100.00;101575.94;104607;1272;61170;-79
2024/04/11 04:44:02;;;;;;;32.10;15.00;;;;;;;14.21;100.00;101577.52;104688;1268;74526;-79
2024/04/11 04:46:30;;;;;;;37.70;16.70;;;;;;;14.38;100.00;101575.80;104784;1273;62972;-79
2024/04/11 04:48:58;;;;;;;32.60;15.30;;;;;;;14.56;100.00;101569.94;104761;1267;71020;-80
2024/04/11 04:51:28;;;;;;;53.70;15.70;;;;;;;14.77;100.00;101569.02;104675;1267;62146;-80
2024/04/11 04:53:56;;;;;;;51.70;16.40;;;;;;;15.04;100.00;101572.27;104560;1268;61387;-79
2024/04/11 04:56:23;;;;;;;52.30;15.50;;;;;;;15.45;100.00;101567.29;104546;1273;75598;-78
2024/04/11 04:58:51;;;;;;;46.40;15.20;;;;;;;16.00;100.00;101567.38;104528;1273;62579;-78
2024/04/11 05:01:20;;;;;;;33.80;14.40;;;;;;;16.62;100.00;101570.39;104602;1268;72333;-80
2024/04/11 05:03:48;;;;;;;46.90;15.50;;;;;;;17.24;100.00;101578.52;104623;1274;61304;-79
2024/04/11 05:06:16;;;;;;;34.20;14.90;;;;;;;17.84;100.00;101578.14;104896;1269;61330;-78
2024/04/11 05:08:46;;;;;;;36.80;13.10;;;;;;;18.42;100.00;101583.46;105118;1268;74905;-80
2024/04/11 05:11:13;;;;;;;46.90;14.20;;;;;;;18.97;100.00;101581.14;105443;1271;63889;-76
2024/04/11 05:13:43;;;;;;;23.90;12.20;;;;;;;19.51;100.00;101579.61;104986;1268;70250;-77
2024/04/11 05:16:18;;;;;;;35.40;12.40;;;;;;;20.06;100.00;101582.87;104644;1273;61419;-78
2024/04/11 05:18:46;;;;;;;43.20;11.90;;;;;;;20.62;99.91;101588.16;104674;1268;61331;-78
2024/04/11 05:21:19;;;;;;;26.70;11.90;;;;;;;21.19;95.90;101590.77;104783;1273;74627;-79
2024/04/11 05:23:47;;;;;;;28.70;12.50;;;;;;;21.71;88.88;101588.45;104714;1268;63015;-80
2024/04/11 05:26:22;;;;;;;39.10;13.30;;;;;;;22.19;77.17;101593.27;104556;1273;72723;-80
2024/04/11 05:28:51;;;;;;;31.50;10.20;;;;;;;22.69;69.28;101593.30;104491;1272;61263;-79
2024/04/11 05:31:25;;;;;;;21.90;11.00;;;;;;;23.17;66.14;101586.19;104535;1268;61266;-79
2024/04/11 05:33:55;;;;;;;;;;;;;;;23.64;61.21;101578.67;104708;1268;73635;-79
2024/04/11 05:36:28;;;;;;;20.30;9.90;;;;;;;24.02;57.90;101579.57;104767;1273;63758;-78
2024/04/11 05:38:56;;;;;;;27.10;11.30;;;;;;;24.39;55.40;101577.13;104653;1272;71210;-80
2024/04/11 05:41:24;;;;;;;29.10;10.00;;;;;;;24.81;53.84;101576.53;104750;1273;61285;-79
2024/04/11 05:43:51;;;;;;;13.60;9.00;;;;;;;25.21;52.87;101575.72;104707;1268;61318;-78
2024/04/11 05:46:18;;;;;;;22.20;8.70;;;;;;;25.60;50.92;101575.14;104739;1273;73753;-77
2024/04/11 05:48:47;;;;;;;20.80;9.10;;;;;;;25.94;48.89;101579.77;104424;1276;64001;-78
2024/04/11 05:51:15;;;;;;;48.80;9.70;;;;;;;26.28;47.98;101582.50;104775;1273;72529;-77
2024/04/11 05:53:42;;;;;;;13.60;7.50;;;;;;;26.60;46.31;101584.30;104785;1271;61438;-80
2024/04/11 05:56:10;;;;;;;17.20;8.10;;;;;;;26.90;45.38;101584.06;104703;1273;61313;-79
2024/04/11 05:58:42;;;;;;;24.10;9.40;;;;;;;27.21;44.12;101582.40;104566;1273;74754;-80
2024/04/11 06:01:10;;;;;;;15.00;8.20;;;;;;;27.53;42.17;101584.96;104628;1273;64423;-80
2024/04/11 06:03:40;;;;;;;12.70;8.00;;;;;;;27.82;41.70;101577.45;104601;1268;72923;-79
2024/04/11 06:06:10;;;;;;;16.90;8.30;;;;;;;28.13;40.73;101575.46;104753;1273;61208;-78
2024/04/11 06:08:37;;;;;;;11.00;7.70;;;;;;;28.44;39.48;101573.40;104603;1274;61256;-78
2024/04/11 06:11:06;;;;;;;13.10;7.90;;;;;;;28.72;38.96;101578.60;104791;1273;75011;-80
2024/04/11 06:13:33;;;;;;;14.90;6.90;;;;;;;28.98;38.41;101580.34;104664;1273;64214;-77
2024/04/11 06:16:01;;;;;;;10.00;6.80;;;;;;;29.24;37.81;101581.59;104674;1273;71047;-78
2024/04/11 06:18:30;;;;;;;15.30;8.40;;;;;;;29.52;37.02;101582.73;104635;1273;61520;-80
2024/04/11 06:21:00;;;;;;;19.20;9.00;;;;;;;29.78;36.81;101582.23;104683;1270;61406;-77
2024/04/11 06:23:27;;;;;;;20.50;7.50;;;;;;;30.01;36.41;101581.63;104600;1273;75216;-77
2024/04/11 06:25:58;;;;;;;11.40;8.20;;;;;;;30.28;35.83;101580.57;104659;1268;63389;-79
2024/04/11 06:28:25;;;;;;;13.50;8.40;;;;;;;30.56;35.32;101576.93;104634;1273;73828;-78
2024/04/11 06:30:51;;;;;;;20.40;7.90;;;;;;;30.84;34.57;101580.14;104774;1274;61301;-78
2024/04/11 06:33:19;;;;;;;13.40;7.80;;;;;;;31.06;34.25;101580.07;104723;1268;61372;-80
2024/04/11 06:35:47;;;;;;;11.10;7.00;;;;;;;31.28;33.99;101579.29;104662;1274;74464;-81
2024/04/11 06:38:15;;;;;;;12.10;6.80;;;;;;;31.46;33.53;101583.04;104775;1273;65525;-79
2024/04/11 06:40:45;;;;;;;12.10;7.90;;;;;;;31.63;33.57;101583.30;104880;1273;73765;-78
2024/04/11 06:43:16;;;;;;;20.70;8.30;;;;;;;31.84;32.92;101585.14;104706;1272;61403;-82
2024/04/11 06:45:44;;;;;;;22.30;8.30;;;;;;;32.04;33.17;101583.85;104719;1274;61297;-80
2024/04/11 06:48:12;;;;;;;16.00;7.10;;;;;;;32.24;32.35;101582.48;104637;1268;75789;-79
2024/04/11 06:50:39;;;;;;;15.40;7.00;;;;;;;32.45;32.00;101582.89;104648;1273;64951;-79
2024/04/11 06:53:08;;;;;;;10.00;7.20;;;;;;;32.66;31.25;101585.38;104465;1274;72698;-79
2024/04/11 06:55:35;;;;;;;11.30;6.60;;;;;;;32.86;30.60;101584.45;106030;1268;61367;-78
2024/04/11 06:58:02;;;;;;;13.80;7.00;;;;;;;33.08;30.34;101584.86;104661;1269;61280;-79
2024/04/11 07:00:38;;;;;;;15.10;7.40;;;;;;;33.28;29.94;101585.02;104637;1273;75931;-80
2024/04/11 07:03:16;;;;;;;23.50;9.50;;;;;;;33.45;29.11;101584.83;104656;1273;62006;-79
2024/04/11 07:05:50;;;;;;;20.70;8.80;;;;;;;33.52;29.18;101585.02;104626;1274;74033;-79
2024/04/11 07:08:25;;;;;;;16.10;8.40;;;;;;;33.56;29.82;101586.64;104764;1272;61311;-78
2024/04/11 07:10:53;;;;;;;24.80;9.70;;;;;;;33.57;29.79;101587.00;105399;1274;61196;-81
2024/04/11 07:13:20;;;;;;;19.30;9.30;;;;;;;33.61;30.11;101590.17;104687;1275;76009;-78
2024/04/11 07:15:47;;;;;;;23.90;8.70;;;;;;;33.67;30.08;101587.23;104667;1272;64239;-81
2024/04/11 07:18:16;;;;;;;15.20;8.80;;;;;;;33.74;30.08;101588.81;104782;1273;73008;-80
2024/04/11 07:20:50;;;;;;;15.60;7.80;;;;;;;33.81;29.55;101593.02;105522;1273;61393;-80
2024/04/11 07:23:19;;;;;;;16.60;8.10;;;;;;;33.87;29.75;101592.91;105338;1268;61524;-78
2024/04/11 07:25:46;;;;;;;16.20;9.00;;;;;;;33.93;29.82;101597.30;104863;1272;73434;-79
2024/04/11 07:28:15;;;;;;;16.30;9.20;;;;;;;33.86;29.57;101598.29;104712;1272;64217;-82
2024/04/11 07:30:43;;;;;;;23.10;9.30;;;;;;;33.87;29.27;101600.33;104590;1273;73745;-82
2024/04/11 07:33:12;;;;;;;23.80;8.60;;;;;;;33.82;28.48;101597.02;104742;1269;61482;-82
2024/04/11 07:35:40;;;;;;;20.10;9.40;;;;;;;33.65;28.69;101595.25;104801;1270;61358;-81
2024/04/11 07:38:07;;;;;;;20.80;10.20;;;;;;;33.29;28.44;101593.09;104797;1272;75799;-80
2024/04/11 07:40:45;;;;;;;24.30;11.40;;;;;;;33.06;29.06;101590.46;104637;1273;63583;-80
2024/04/11 07:43:13;;;;;;;22.30;12.10;;;;;;;32.98;28.95;101590.11;104706;1273;74546;-81
2024/04/11 07:45:41;;;;;;;24.90;15.60;;;;;;;32.95;29.45;101585.96;104619;1273;61173;-82
2024/04/11 07:48:08;;;;;;;35.70;18.50;;;;;;;33.03;29.24;101587.47;104800;1273;61151;-81
2024/04/11 07:50:39;;;;;;;36.60;19.70;;;;;;;33.22;28.93;101585.11;104765;1271;75669;-80
2024/04/11 07:53:07;;;;;;;40.10;21.40;;;;;;;33.40;28.10;101582.98;104621;1270;62726;-81
2024/04/11 07:55:34;;;;;;;30.20;17.40;;;;;;;33.44;27.63;101581.32;104773;1273;73607;-80
2024/04/11 07:58:05;;;;;;;29.60;18.60;;;;;;;33.46;27.29;101579.55;104779;1269;61280;-80
2024/04/11 08:00:39;;;;;;;23.20;13.20;;;;;;;33.51;26.87;101580.30;104708;1270;61256;-78
2024/04/11 08:03:07;;;;;;;30.60;13.60;;;;;;;33.54;26.62;101577.90;104736;1281;74864;-78
2024/04/11 08:05:34;;;;;;;21.10;12.30;;;;;;;33.69;26.08;101577.01;104684;1272;64103;-79
2024/04/11 08:08:00;;;;;;;20.70;11.10;;;;;;;33.87;24.44;101579.15;104967;1273;72508;-79
2024/04/11 08:10:28;;;;;;;29.10;12.00;;;;;;;34.01;24.14;101582.10;104721;1272;61236;-79
2024/04/11 08:12:57;;;;;;;23.60;12.80;;;;;;;34.13;23.75;101582.09;104623;1271;61591;-77
2024/04/11 08:15:25;;;;;;;24.10;13.20;;;;;;;34.28;23.64;101580.73;104659;1270;75599;-80
2024/04/11 08:17:51;;;;;;;28.40;12.60;;;;;;;34.57;23.54;101580.64;104663;1273;61822;-80
2024/04/11 08:20:19;;;;;;;24.00;13.50;;;;;;;34.79;23.12;101580.63;104546;1273;74001;-81
2024/04/11 08:22:46;;;;;;;21.40;12.80;;;;;;;35.01;23.04;101585.36;104561;1273;61381;-81
2024/04/11 08:25:13;;;;;;;30.80;15.80;;;;;;;35.15;22.40;101577.64;104607;1272;61561;-80
2024/04/11 08:27:45;;;;;;;29.60;14.40;;;;;;;35.30;22.79;101580.47;104632;1273;73576;-79
2024/04/11 08:30:18;;;;;;;20.30;13.20;;;;;;;35.60;22.68;101575.50;104670;1272;64291;-81
2024/04/11 08:32:46;;;;;;;26.20;13.00;;;;;;;35.86;22.09;101575.77;104624;1274;72735;-78
2024/04/11 08:35:17;;;;;;;20.00;11.10;;;;;;;35.95;21.92;101574.36;104685;1273;61288;-78
2024/04/11 08:37:46;;;;;;;20.60;10.80;;;;;;;35.98;22.03;101572.84;104645;1274;61300;-81
2024/04/11 08:40:13;;;;;;;18.80;10.00;;;;;;;36.06;21.98;101572.98;104795;1273;67256;-81
2024/04/11 08:42:41;;;;;;;18.10;9.90;;;;;;;36.17;22.24;101570.84;104734;1274;64518;-79
2024/04/11 08:45:08;;;;;;;13.20;8.70;;;;;;;36.28;21.93;101570.64;104604;1269;71779;-79
2024/04/11 08:47:35;;;;;;;10.00;6.80;;;;;;;36.47;21.71;101570.05;104577;1273;61448;-79
2024/04/11 08:50:05;;;;;;;12.40;7.30;;;;;;;36.60;21.43;101568.20;104541;1270;61243;-78
2024/04/11 08:52:39;;;;;;;9.70;7.60;;;;;;;36.70;21.57;101565.07;104695;1272;75653;-81
2024/04/11 08:55:14;;;;;;;11.10;5.60;;;;;;;36.88;21.14;101566.30;104617;1273;63375;-79
2024/04/11 08:57:42;;;;;;;7.10;5.20;;;;;;;37.02;20.44;101568.03;104512;1273;63885;-79
2024/04/11 09:00:12;;;;;;;11.60;6.60;;;;;;;37.14;20.65;101570.33;104732;1273;61468;-82
2024/04/11 09:02:44;;;;;;;11.50;5.10;;;;;;;37.27;20.06;101568.60;104531;1273;61313;-81
2024/04/11 09:05:14;;;;;;;12.80;5.10;;;;;;;37.33;20.01;101566.77;104536;1273;66126;-79
2024/04/11 09:07:46;;;;;;;;;;;;;;;37.40;19.79;101566.02;104632;1269;61326;-78
2024/04/11 09:10:19;;;;;;;10.20;4.90;;;;;;;37.49;20.01;101563.42;104679;1270;65293;-81
2024/04/11 09:12:47;;;;;;;11.20;5.30;;;;;;;37.56;20.24;101564.93;104647;1273;61335;-79
2024/04/11 09:15:18;;;;;;;8.70;4.10;;;;;;;37.66;20.07;101565.91;104716;1269;61406;-77
2024/04/11 09:17:45;;;;;;;5.30;3.50;;;;;;;37.78;19.78;101569.98;104646;1270;74975;-78
2024/04/11 09:20:13;;;;;;;6.90;3.30;;;;;;;37.84;19.34;101568.47;104496;1271;61326;-79
2024/04/11 09:22:50;;;;;;;6.50;3.40;;;;;;;37.81;19.16;101568.39;104699;1274;65345;-77
2024/04/11 09:25:25;;;;;;;10.30;3.60;;;;;;;37.65;18.68;101567.10;104667;1270;61291;-77
2024/04/11 09:27:58;;;;;;;6.50;3.60;;;;;;;37.45;19.13;101565.23;104656;1270;61265;-81
2024/04/11 09:30:32;;;;;;;7.70;4.10;;;;;;;37.32;19.31;101559.82;104530;1273;67304;-82
2024/04/11 09:33:04;;;;;;;10.50;4.60;;;;;;;37.30;19.52;101558.02;104502;1273;62758;-79
2024/04/11 09:35:41;;;;;;;8.90;4.20;;;;;;;37.29;19.30;101561.58;104669;1271;65176;-78
2024/04/11 09:38:12;;;;;;;8.40;4.10;;;;;;;37.21;19.30;101558.92;104627;1274;61415;-78
2024/04/11 09:40:43;;;;;;;9.70;5.80;;;;;;;37.23;19.13;101558.07;104576;1270;61589;-81
2024/04/11 09:43:15;;;;;;;9.90;4.30;;;;;;;37.35;19.00;101557.77;104571;1273;67234;-78
2024/04/11 09:45:45;;;;;;;;;;;;;;;37.30;18.66;101559.95;104784;1281;61280;-80
2024/04/11 09:48:12;;;;;;;7.30;3.50;;;;;;;37.22;18.51;101558.45;104699;1271;72737;-82
2024/04/11 09:50:39;;;;;;;8.80;3.80;;;;;;;37.10;18.62;101555.66;104510;1270;61372;-82
2024/04/11 09:53:06;;;;;;;8.00;4.00;;;;;;;37.04;18.82;101556.55;104609;1270;61390;-79
2024/04/11 09:55:33;;;;;;;9.00;3.50;;;;;;;37.04;19.08;101551.75;104558;1273;67162;-79
2024/04/11 09:58:00;;;;;;;5.00;3.50;;;;;;;37.18;19.08;101551.64;104702;1274;61319;-79
2024/04/11 10:01:04;;;;;;;8.40;3.90;;;;;;;37.38;18.68;101551.77;104593;1273;65206;-81
2024/04/11 10:03:41;;;;;;;7.50;3.60;;;;;;;37.52;18.64;101553.30;104680;1273;61393;-80
2024/04/11 10:06:16;;;;;;;6.00;3.40;;;;;;;37.68;18.85;101553.13;104627;1270;61196;-80
2024/04/11 10:08:45;;;;;;;5.40;3.50;;;;;;;37.80;18.57;101552.15;104646;1269;65871;-76
2024/04/11 10:11:12;;;;;;;7.50;3.60;;;;;;;37.74;18.27;101553.59;104596;1270;61235;-79
2024/04/11 10:13:44;;;;;;;6.00;3.40;;;;;;;37.64;18.45;101551.54;105026;1270;64134;-80
2024/04/11 10:16:29;;;;;;;10.80;4.50;;;;;;;37.57;18.58;101551.20;105557;1273;61384;-79
2024/04/11 10:19:07;;;;;;;6.80;4.30;;;;;;;37.57;18.46;101548.08;105377;1268;61329;-80
2024/04/11 10:21:38;;;;;;;7.60;5.40;;;;;;;37.60;18.45;101551.75;105061;1268;67089;-81
2024/04/11 10:24:23;;;;;;;11.80;6.10;;;;;;;37.55;18.03;101551.77;104812;1272;61370;-82
2024/04/11 10:26:54;;;;;;;12.10;5.30;;;;;;;37.50;18.43;101552.99;104795;1271;65612;-80
2024/04/11 10:29:26;;;;;;;7.00;5.50;;;;;;;37.52;18.43;101551.05;104700;1273;61166;-79
2024/04/11 10:31:58;;;;;;;7.00;5.30;;;;;;;37.60;18.48;101553.77;104457;1276;61264;-81
2024/04/11 10:34:34;;;;;;;11.30;5.40;;;;;;;37.62;18.32;101551.35;104668;1273;76206;-79
2024/04/11 10:37:02;;;;;;;9.00;6.10;;;;;;;37.55;18.18;101554.29;104589;1270;61285;-78
2024/04/11 10:39:35;;;;;;;9.40;7.60;;;;;;;37.50;18.37;101555.73;104593;1274;65087;-79
2024/04/11 10:42:02;;;;;;;;;;;;;;;37.49;18.41;101555.66;104620;1274;61431;-78
2024/04/11 10:44:30;;;;;;;14.40;8.90;;;;;;;37.43;18.22;101554.58;104773;1270;61361;-79
2024/04/11 10:46:56;;;;;;;13.80;8.40;;;;;;;37.34;18.55;101555.91;104695;1270;66817;-78
2024/04/11 10:49:28;;;;;;;19.30;10.00;;;;;;;37.22;18.64;101556.86;104627;1268;61192;-80
2024/04/11 10:54:08;;;;;;;11.20;8.10;;;;;;;37.18;18.70;101557.01;102634;1292;599314;-80
2024/04/11 10:56:41;;;;;;;9.10;7.30;;;;;;;37.08;18.33;101559.54;104835;1271;60153;-81
2024/04/11 10:59:14;;;;;;;9.20;7.50;;;;;;;36.97;18.67;101559.66;104888;1266;59761;-80
2024/04/11 11:01:47;;;;;;;12.20;8.30;;;;;;;36.87;18.71;101553.85;105445;1262;74998;-82
2024/04/11 11:04:30;;;;;;;13.40;7.40;;;;;;;36.89;18.95;101551.91;105310;1264;59732;-79
2024/04/11 11:07:01;;;;;;;10.40;7.50;;;;;;;36.95;18.56;101552.30;105155;1258;201526;-79
2024/04/11 11:09:28;;;;;;;10.20;7.60;;;;;;;36.93;18.15;101550.23;105501;1257;59742;-80
2024/04/11 11:11:56;;;;;;;8.10;7.00;;;;;;;36.80;18.21;101547.64;105615;1255;60134;-78
2024/04/11 11:14:28;;;;;;;9.10;7.30;;;;;;;36.57;18.27;101548.79;105525;1257;73990;-76
2024/04/11 11:17:01;;;;;;;12.00;6.40;;;;;;;36.37;18.38;101542.15;105580;1259;59620;-77
2024/04/11 11:19:34;;;;;;;13.60;7.10;;;;;;;36.33;18.34;101538.02;105630;1256;74299;-79